Decoded Metar for KTXK (TEXARKANA in AR, USA) (IATA:TXK) | Meteo·Mobile Aviation Weather
aviador You're here:

KTXK Decoded Metar

TEXARKANA in AR, USA
Report Time2019-07-20 12:53:00
UTC Time2019-07-20 13:30:47
Flight Rules vfr VFR
Wind190° at 07 kt
W.Decomp.*RWY 22: 5.7 kt HW 4 kt LCW
RWY 13: 4.0 kt HW 5.7 kt RCW
Visibility9999 m
Phenomena:N/A
Clouds:N/A
Expected CloudBase > 1,200 ft AGL from Temp-Dew spread
CeilingNone
Temp26°C (ISA +12)
Dew Point23°C (84% RH)
QNH1017 hPa
Density Alt1,955 ft
Elevation364 ft
Report Wrong Elevation
Raw Report
KTXK 201253Z 19007KT 10SM CLR 26/23 A3002 RMK AO2 SLP158
T02560233=

Extra information for KTXK:More info

Metar Taf Metar & Taf Last 4 Metars F.Rules Stats Wind Profile Meteogram Temp Stats Airport Information Weather charts Add Link Nearby VenuesMetar ALERT Operation Metar Decoded Social comments

AIRNAV info for KTXK